Latest Weather Observations for Mullion

IDN60901

Issued at 12:31 pm EST Tuesday 7 July 2020 (issued every 10 minutes, with the page automatically refreshed every 10 minutes)

About weather observations | Map of Canberra area stations | Latest observations for Canberra area | Other Formats
Station Details ID: 250070 Name: MULLION (PCS) Lat: -35.11 Lon: 148.85 Height: 750.0 m

Portable automatic weather stations (PAWS) are operated by other organisations, such as Fire and Emergency Services, and are included here by agreement. Portable stations may be deployed to a location for a short period and their location may be subject to change without notice. Wind observations from these stations are provided from heights of either three (3) or ten (10) metres above ground level (AGL).

Data from the previous 72 hours. | See also: Recent months for locations in Aust Capital Territory
Date/Time
EST
Temp
°C
App
Temp
°C
Dew
Point
°C
Rel
Hum
%
Delta-T
°C
Wind Press
QNH
hPa
Press
MSL
hPa
Rain since
9am
mm
Dir  Spd
km/h
Gust
km/h
Spd
kts
Gust
kts
07/12:20pm 8.7 7.3 3.8 71 2.2 CALM 0 0 0 0 1029.9 - 0.0
07/12:10pm 8.7 7.3 3.8 71 2.2 CALM 0 0 0 0 1029.9 - 0.0
07/12:00pm 8.7 7.4 3.9 72 2.2 CALM 0 0 0 0 1030.0 - 0.0
07/11:50am 8.7 7.4 4.1 73 2.1 CALM 0 0 0 0 1030.1 - 0.0
07/11:40am 8.4 7.2 4.6 77 1.8 CALM 0 0 0 0 1030.3 - 0.0
07/11:30am 8.0 6.7 4.2 77 1.7 CALM 0 0 0 0 1030.7 - 0.0
07/11:20am 7.7 6.4 4.0 77 1.7 CALM 0 0 0 0 1030.6 - 0.0
07/11:10am 7.5 6.2 4.1 79 1.5 CALM 0 0 0 0 1030.5 - 0.0
07/11:00am 7.4 6.1 3.9 78 1.6 CALM 0 0 0 0 1030.3 - 0.0
07/10:50am 7.3 6.0 3.9 79 1.5 CALM 0 0 0 0 1030.6 - 0.0
07/10:40am 7.2 5.9 4.2 81 1.4 CALM 0 0 0 0 1030.9 - 0.0
07/10:30am 7.1 5.8 4.1 81 1.4 CALM 0 0 0 0 1030.9 - 0.0
07/10:20am 6.7 5.3 3.5 80 1.4 CALM 0 0 0 0 1031.0 - 0.0
07/10:10am 6.5 5.1 3.5 81 1.3 CALM 0 0 0 0 1031.1 - 0.0
07/10:00am 6.1 4.7 3.7 84 1.1 CALM 0 0 0 0 1031.1 - 0.0
07/09:50am 5.5 4.0 3.1 84 1.0 CALM 0 0 0 0 1030.9 - 0.0
07/09:40am 4.9 3.5 3.3 89 0.7 CALM 0 0 0 0 1030.9 - 0.0
07/09:30am 4.6 3.1 2.9 89 0.7 CALM 0 0 0 0 1030.9 - 0.0
07/09:20am 4.5 3.0 2.8 89 0.7 CALM 0 0 0 0 1030.7 - 0.0
07/09:10am 4.6 3.0 2.2 84 1.0 CALM 0 0 0 0 1030.6 - 0.0
07/09:00am 4.3 2.6 2.1 86 0.9 CALM 0 0 0 0 1030.6 - 0.2
07/08:50am 3.8 2.1 1.8 87 0.8 CALM 0 0 0 0 1030.5 - 0.2
07/08:40am 3.4 1.7 1.7 89 0.7 CALM 0 0 0 0 1030.5 - 0.2
07/08:30am 3.7 2.0 1.8 87 0.8 CALM 0 0 0 0 1030.4 - 0.2
07/08:20am 3.4 1.7 1.6 88 0.7 CALM 0 0 0 0 1030.4 - 0.2
07/08:10am 3.6 1.9 1.8 88 0.7 CALM 0 0 0 0 1030.4 - 0.2
07/08:00am 3.4 1.7 1.6 88 0.7 CALM 0 0 0 0 1030.3 - 0.2
07/07:50am 3.0 1.2 1.5 90 0.6 CALM 0 0 0 0 1030.4 - 0.2
07/07:40am 3.0 1.2 1.5 90 0.6 CALM 0 0 0 0 1030.4 - 0.2
07/07:30am 2.8 1.0 1.5 91 0.5 CALM 0 0 0 0 1030.3 - 0.2
07/07:20am 2.9 1.1 1.5 90 0.6 CALM 0 0 0 0 1030.4 - 0.2
07/07:10am 2.9 1.1 1.4 90 0.6 CALM 0 0 0 0 1030.1 - 0.2
07/07:00am 2.7 0.9 1.5 92 0.5 CALM 0 0 0 0 1030.2 - 0.2
07/06:50am 2.7 0.9 1.5 92 0.5 CALM 0 0 0 0 1030.0 - 0.2
07/06:40am 2.7 0.9 1.5 92 0.5 CALM 0 0 0 0 1030.0 - 0.2
07/06:30am 2.6 0.9 1.8 94 0.3 CALM 0 0 0 0 1029.8 - 0.2
07/06:20am 2.6 1.0 2.3 98 0.1 CALM 0 0 0 0 1029.6 - 0.2
07/06:10am 2.3 0.7 2.3 100 0.0 CALM 0 0 0 0 1029.6 - 0.2
07/06:00am 1.9 0.2 1.9 100 0.0 CALM 0 0 0 0 1029.5 - 0.2
07/05:50am 1.8 0.1 1.8 100 0.0 CALM 0 0 0 0 1029.5 - 0.2
07/05:40am 1.6 -0.1 1.6 100 0.0 CALM 0 0 0 0 1029.3 - 0.2
07/05:30am 1.8 0.1 1.8 100 0.0 CALM 0 0 0 0 1029.4 - 0.2
07/05:20am 1.6 -0.1 1.6 100 0.0 CALM 0 0 0 0 1029.3 - 0.2
07/05:10am 1.8 0.1 1.8 100 0.0 CALM 0 0 0 0 1029.3 - 0.2
07/05:00am 1.8 0.1 1.8 100 0.0 CALM 0 0 0 0 1029.3 - 0.2
07/04:50am 1.3 -0.5 1.3 100 0.0 CALM 0 0 0 0 1029.2 - 0.2
07/04:40am -0.1 -2.1 -0.1 100 0.0 CALM 0 0 0 0 1029.3 - 0.2
07/04:30am -0.6 -2.7 -0.6 100 0.0 CALM 0 0 0 0 1029.4 - 0.2
07/04:20am -0.3 -2.3 -0.3 100 0.0 CALM 0 0 0 0 1029.4 - 0.2
07/04:10am -0.2 -2.2 -0.2 100 0.0 CALM 0 0 0 0 1029.3 - 0.2
07/04:00am 0.1 -1.9 0.1 100 0.0 CALM 0 0 0 0 1029.4 - 0.2
07/03:50am -0.1 -2.1 -0.1 100 0.0 CALM 0 0 0 0 1029.3 - 0.2
07/03:40am 0.3 -1.6 0.3 100 0.0 CALM 0 0 0 0 1029.4 - 0.2
07/03:30am 0.5 -1.4 0.5 100 0.0 CALM 0 0 0 0 1029.5 - 0.2
07/03:20am 0.4 -1.5 0.4 100 0.0 CALM 0 0 0 0 1029.5 - 0.2
07/03:10am 0.5 -1.4 0.5 100 0.0 CALM 0 0 0 0 1029.5 - 0.2
07/03:00am 0.7 -1.2 0.7 100 0.0 CALM 0 0 0 0 1029.4 - 0.2
07/02:50am 0.6 -1.3 0.6 100 0.0 CALM 0 0 0 0 1029.5 - 0.0
07/02:40am 0.6 -1.3 0.6 100 0.0 CALM 0 0 0 0 1029.4 - 0.0
07/02:30am 0.7 -1.2 0.7 100 0.0 CALM 0 0 0 0 1029.4 - 0.0
07/02:20am 0.7 -1.2 0.7 100 0.0 CALM 0 0 0 0 1029.5 - 0.0
07/02:10am 0.9 -1.0 0.8 99 0.0 CALM 0 0 0 0 1029.5 - 0.0
07/02:00am 1.3 -0.5 1.3 100 0.0 CALM 0 0 0 0 1029.5 - 0.0
07/01:50am 1.1 -0.7 1.1 100 0.0 CALM 0 0 0 0 1029.6 - 0.0
07/01:40am 1.1 -0.7 1.1 100 0.0 CALM 0 0 0 0 1029.7 - 0.0
07/01:30am 1.2 -0.6 1.2 100 0.0 CALM 0 0 0 0 1029.8 - 0.0
07/01:20am 1.5 -0.3 1.5 100 0.0 CALM 0 0 0 0 1029.8 - 0.0
07/01:10am 1.7 0.0 1.7 100 0.0 CALM 0 0 0 0 1029.9 - 0.0
07/01:00am 1.9 0.2 1.9 100 0.0 CALM 0 0 0 0 1029.9 - 0.0
07/12:50am 2.1 0.4 2.1 100 0.0 CALM 0 0 0 0 1030.0 - 0.0
07/12:40am 2.3 0.7 2.3 100 0.0 CALM 0 0 0 0 1030.0 - 0.0
07/12:30am 2.4 0.8 2.4 100 0.0 CALM 0 0 0 0 1030.0 - 0.0
07/12:20am 2.6 1.0 2.6 100 0.0 CALM 0 0 0 0 1030.0 - 0.0
07/12:10am 2.7 1.1 2.7 100 0.0 CALM 0 0 0 0 1030.0 - 0.0
07/12:00am 2.8 1.3 2.8 100 0.0 CALM 0 0 0 0 1030.1 - 0.0
 
Date/Time
EST
Temp
°C
App
Temp
°C
Dew
Point
°C
Rel
Hum
%
Delta-T
°C
Wind Press
QNH
hPa
Press
MSL
hPa
Rain since
9am
mm
Dir  Spd
km/h
Gust
km/h
Spd
kts
Gust
kts
06/11:50pm 2.8 1.3 2.8 100 0.0 CALM 0 0 0 0 1030.1 - 0.0
06/11:40pm 2.9 1.4 2.9 100 0.0 CALM 0 0 0 0 1030.2 - 0.0
06/11:30pm 3.0 1.5 2.9 99 0.0 CALM 0 0 0 0 1030.2 - 0.0
06/11:20pm 3.0 1.5 3.0 100 0.0 CALM 0 0 0 0 1030.3 - 0.0
06/11:10pm 3.1 1.6 3.1 100 0.0 CALM 0 0 0 0 1030.4 - 0.0
06/11:00pm 3.2 1.7 3.2 100 0.0 CALM 0 0 0 0 1030.5 - 0.0
06/10:50pm 3.3 1.9 3.3 100 0.0 CALM 0 0 0 0 1030.4 - 0.0
06/10:40pm 3.4 2.0 3.4 100 0.0 CALM 0 0 0 0 1030.4 - 0.0
06/10:30pm 3.5 2.1 3.5 100 0.0 CALM 0 0 0 0 1030.3 - 0.0
06/10:20pm 3.6 2.2 3.6 100 0.0 CALM 0 0 0 0 1030.3 - 0.0
06/10:10pm 3.7 2.3 3.7 100 0.0 CALM 0 0 0 0 1030.3 - 0.0
06/10:00pm 3.8 2.4 3.8 100 0.0 CALM 0 0 0 0 1030.2 - 0.0
06/09:50pm 4.0 2.7 4.0 100 0.0 CALM 0 0 0 0 1030.2 - 0.0
06/09:40pm 4.1 2.8 4.1 100 0.0 CALM 0 0 0 0 1030.2 - 0.0
06/09:30pm 4.2 2.9 4.2 100 0.0 CALM 0 0 0 0 1030.1 - 0.0
06/09:20pm 4.3 3.0 4.3 100 0.0 CALM 0 0 0 0 1030.2 - 0.0
06/09:10pm 4.3 3.0 4.3 100 0.0 CALM 0 0 0 0 1030.2 - 0.0
06/09:00pm 4.3 3.0 4.3 100 0.0 CALM 0 0 0 0 1030.2 - 0.0
06/08:50pm 4.3 3.0 4.3 100 0.0 CALM 0 0 0 0 1030.1 - 0.0
06/08:40pm 4.4 3.2 4.4 100 0.0 CALM 0 0 0 0 1030.1 - 0.0
06/08:30pm 4.3 3.0 4.3 100 0.0 CALM 0 0 0 0 1030.1 - 0.0
06/08:20pm 4.3 3.0 4.3 100 0.0 CALM 0 0 0 0 1030.1 - 0.0
06/08:10pm 4.3 3.0 4.3 100 0.0 CALM 0 0 0 0 1030.0 - 0.0
06/08:00pm 4.3 3.0 4.3 100 0.0 CALM 0 0 0 0 1029.9 - 0.0
06/07:50pm 4.4 3.2 4.4 100 0.0 CALM 0 0 0 0 1029.9 - 0.0
06/07:40pm 4.3 3.0 4.3 100 0.0 CALM 0 0 0 0 1029.8 - 0.0
06/07:30pm 4.5 3.3 4.5 100 0.0 CALM 0 0 0 0 1029.7 - 0.0
06/07:20pm 4.6 3.4 4.6 100 0.0 CALM 0 0 0 0 1029.5 - 0.0
06/07:10pm 4.8 3.6 4.8 100 0.0 CALM 0 0 0 0 1029.5 - 0.0
06/07:00pm 5.0 3.9 5.0 100 0.0 CALM 0 0 0 0 1029.4 - 0.0
06/06:50pm 5.1 4.0 5.1 100 0.0 CALM 0 0 0 0 1029.2 - 0.0
06/06:40pm 5.1 4.0 5.1 100 0.0 CALM 0 0 0 0 1029.1 - 0.0
06/06:30pm 5.2 4.1 5.2 100 0.0 CALM 0 0 0 0 1029.1 - 0.0
06/06:20pm 5.1 4.0 5.1 100 0.0 CALM 0 0 0 0 1029.0 - 0.0
06/06:10pm 5.2 4.1 5.2 100 0.0 CALM 0 0 0 0 1028.9 - 0.0
06/06:00pm 5.2 4.1 5.2 100 0.0 CALM 0 0 0 0 1028.8 - 0.0
06/05:50pm 5.2 4.1 5.2 100 0.0 CALM 0 0 0 0 1028.7 - 0.0
06/05:40pm 5.1 4.0 5.1 100 0.0 CALM 0 0 0 0 1028.5 - 0.0
06/05:30pm 5.1 4.0 5.1 100 0.0 CALM 0 0 0 0 1028.3 - 0.0
06/05:20pm 5.1 4.0 5.1 100 0.0 CALM 0 0 0 0 1028.1 - 0.0
06/05:10pm 5.1 4.0 5.1 100 0.0 CALM 0 0 0 0 1028.1 - 0.0
06/05:00pm 5.1 4.0 5.1 100 0.0 CALM 0 0 0 0 1028.1 - 0.0
06/04:50pm 5.1 4.0 5.1 100 0.0 CALM 0 0 0 0 1028.1 - 0.0
06/04:40pm 5.1 4.0 5.1 100 0.0 CALM 0 0 0 0 1028.2 - 0.0
06/04:30pm 5.1 4.0 5.1 100 0.0 CALM 0 0 0 0 1028.3 - 0.0
06/04:20pm 5.2 4.1 5.2 100 0.0 CALM 0 0 0 0 1028.2 - 0.0
06/04:10pm 5.5 4.5 5.5 100 0.0 CALM 0 0 0 0 1028.2 - 0.0
06/04:00pm 5.5 4.5 5.5 100 0.0 CALM 0 0 0 0 1028.1 - 0.0
06/03:50pm 5.4 4.4 5.4 100 0.0 CALM 0 0 0 0 1028.1 - 0.0
06/03:40pm 5.5 4.5 5.5 100 0.0 CALM 0 0 0 0 1028.1 - 0.0
06/03:30pm 5.3 4.2 5.3 100 0.0 CALM 0 0 0 0 1028.1 - 0.0
06/03:20pm 5.3 4.2 5.3 100 0.0 CALM 0 0 0 0 1028.0 - 0.0
06/03:10pm 5.2 4.1 5.2 100 0.0 CALM 0 0 0 0 1028.0 - 0.0
06/03:00pm 5.1 4.0 5.1 100 0.0 CALM 0 0 0 0 1028.0 - 0.0
06/02:50pm 5.0 3.9 5.0 100 0.0 CALM 0 0 0 0 1027.9 - 0.0
06/02:40pm 4.9 3.8 4.9 100 0.0 CALM 0 0 0 0 1028.0 - 0.0
06/02:30pm 4.9 3.8 4.9 100 0.0 CALM 0 0 0 0 1027.9 - 0.0
06/02:20pm 4.8 3.6 4.8 100 0.0 CALM 0 0 0 0 1027.9 - 0.0
06/02:10pm 4.7 3.5 4.6 99 0.0 CALM 0 0 0 0 1028.0 - 0.0
06/02:00pm 4.5 3.3 4.5 100 0.0 CALM 0 0 0 0 1028.0 - 0.0
06/01:50pm 4.4 3.2 4.4 100 0.0 CALM 0 0 0 0 1028.0 - 0.0
06/01:40pm 4.2 2.9 4.2 100 0.0 CALM 0 0 0 0 1028.1 - 0.0
06/01:30pm 4.1 2.8 4.1 100 0.0 CALM 0 0 0 0 1028.0 - 0.0
06/01:20pm 3.9 2.6 3.9 100 0.0 CALM 0 0 0 0 1028.1 - 0.0
06/01:10pm 3.9 2.6 3.9 100 0.0 CALM 0 0 0 0 1028.1 - 0.0
06/01:00pm 3.9 2.6 3.9 100 0.0 CALM 0 0 0 0 1028.3 - 0.0
06/12:50pm 3.7 2.3 3.7 100 0.0 CALM 0 0 0 0 1028.4 - 0.0
06/12:40pm 3.6 2.2 3.6 100 0.0 CALM 0 0 0 0 1028.5 - 0.0
06/12:30pm 3.7 2.3 3.7 100 0.0 CALM 0 0 0 0 1028.7 - 0.0
06/12:20pm 3.4 2.0 3.4 100 0.0 CALM 0 0 0 0 1028.8 - 0.0
06/12:10pm 3.3 1.9 3.3 100 0.0 CALM 0 0 0 0 1029.0 - 0.0
06/12:00pm 3.0 1.5 3.0 100 0.0 CALM 0 0 0 0 1029.1 - 0.0
06/11:50am 2.9 1.4 2.9 100 0.0 CALM 0 0 0 0 1029.1 - 0.0
06/11:40am 2.7 1.1 2.7 100 0.0 CALM 0 0 0 0 1029.2 - 0.0
06/11:30am 2.6 1.0 2.6 100 0.0 CALM 0 0 0 0 1029.4 - 0.0
06/11:20am 2.3 0.7 2.3 100 0.0 CALM 0 0 0 0 1029.5 - 0.0
06/11:10am 2.3 0.7 2.3 100 0.0 CALM 0 0 0 0 1029.6 - 0.0
06/11:00am 2.2 0.6 2.2 100 0.0 CALM 0 0 0 0 1029.6 - 0.0
06/10:50am 2.3 0.7 2.2 99 0.0 CALM 0 0 0 0 1029.7 - 0.0
06/10:40am 2.1 0.4 2.1 100 0.0 CALM 0 0 0 0 1029.7 - 0.0
06/10:30am 2.1 0.4 2.1 100 0.0 CALM 0 0 0 0 1029.8 - 0.0
06/10:20am 2.0 0.3 2.0 100 0.0 CALM 0 0 0 0 1029.8 - 0.0
06/10:10am 2.2 0.6 2.2 100 0.0 CALM 0 0 0 0 1029.8 - 0.0
06/10:00am 2.2 0.6 2.2 100 0.0 CALM 0 0 0 0 1029.9 - 0.0
06/09:50am 2.0 0.3 2.0 100 0.0 CALM 0 0 0 0 1029.9 - 0.0
06/09:40am 1.8 0.1 1.8 100 0.0 CALM 0 0 0 0 1030.0 - 0.0
06/09:30am 1.3 -0.5 1.3 100 0.0 CALM 0 0 0 0 1029.9 - 0.0
06/09:20am 1.0 -0.8 1.0 100 0.0 CALM 0 0 0 0 1029.9 - 0.0
06/09:10am 0.6 -1.3 0.6 100 0.0 CALM 0 0 0 0 1029.7 - 0.0
06/09:00am 0.4 -1.5 0.4 100 0.0 CALM 0 0 0 0 1029.6 - 0.0
06/08:50am 0.7 -1.2 0.7 100 0.0 CALM 0 0 0 0 1029.5 - 0.0
06/08:40am 1.3 -0.5 1.3 100 0.0 CALM 0 0 0 0 1029.3 - 0.0
06/08:30am 1.1 -0.7 1.1 100 0.0 CALM 0 0 0 0 1029.1 - 0.0
06/08:20am 1.2 -0.6 1.2 100 0.0 CALM 0 0 0 0 1029.0 - 0.0
06/08:10am 0.9 -0.9 0.9 100 0.0 CALM 0 0 0 0 1028.9 - 0.0
06/08:00am 1.1 -0.7 1.1 100 0.0 CALM 0 0 0 0 1028.9 - 0.0
06/07:50am 0.9 -0.9 0.9 100 0.0 CALM 0 0 0 0 1029.0 - 0.0
06/07:40am 0.8 -1.1 0.8 100 0.0 CALM 0 0 0 0 1028.9 - 0.0
06/07:30am 0.7 -1.2 0.7 100 0.0 CALM 0 0 0 0 1028.9 - 0.0
06/07:20am 0.8 -1.1 0.8 100 0.0 CALM 0 0 0 0 1028.8 - 0.0
06/07:10am 0.9 -0.9 0.9 100 0.0 CALM 0 0 0 0 1028.7 - 0.0
06/07:00am 1.0 -0.8 1.0 100 0.0 CALM 0 0 0 0 1028.6 - 0.0
06/06:50am 0.9 -0.9 0.9 100 0.0 CALM 0 0 0 0 1028.5 - 0.0
06/06:40am 0.9 -0.9 0.9 100 0.0 CALM 0 0 0 0 1028.3 - 0.0
06/06:30am 1.1 -0.7 1.1 100 0.0 CALM 0 0 0 0 1028.2 - 0.0
06/06:20am 1.2 -0.6 1.2 100 0.0 CALM 0 0 0 0 1028.1 - 0.0
06/06:10am 1.2 -0.6 1.2 100 0.0 CALM 0 0 0 0 1027.9 - 0.0
06/06:00am 1.4 -0.4 1.4 100 0.0 CALM 0 0 0 0 1027.7 - 0.0
06/05:50am 1.5 -0.3 1.5 100 0.0 CALM 0 0 0 0 1027.6 - 0.0
06/05:40am 1.4 -0.4 1.4 100 0.0 CALM 0 0 0 0 1027.5 - 0.0
06/05:30am 1.4 -0.4 1.4 100 0.0 CALM 0 0 0 0 1027.4 - 0.0
06/05:20am 1.5 -0.3 1.5 100 0.0 CALM 0 0 0 0 1027.4 - 0.0
06/05:10am 1.6 -0.1 1.6 100 0.0 CALM 0 0 0 0 1027.3 - 0.0
06/05:00am 1.5 -0.3 1.5 100 0.0 CALM 0 0 0 0 1027.3 - 0.0
06/04:50am 1.7 0.0 1.7 100 0.0 CALM 0 0 0 0 1027.3 - 0.0
06/04:40am 1.8 0.1 1.8 100 0.0 CALM 0 0 0 0 1027.2 - 0.0
06/04:30am 1.9 0.2 1.9 100 0.0 CALM 0 0 0 0 1027.3 - 0.0
06/04:20am 2.0 0.3 2.0 100 0.0 CALM 0 0 0 0 1027.2 - 0.0
06/04:10am 2.1 0.4 2.1 100 0.0 CALM 0 0 0 0 1027.3 - 0.0
06/04:00am 2.2 0.6 2.2 100 0.0 CALM 0 0 0 0 1027.2 - 0.0
06/03:50am 2.1 0.4 2.1 100 0.0 CALM 0 0 0 0 1027.2 - 0.0
06/03:40am 2.8 1.3 2.8 100 0.0 CALM 0 0 0 0 1027.2 - 0.0
06/03:30am 3.2 1.7 3.2 100 0.0 CALM 0 0 0 0 1027.2 - 0.0
06/03:20am 3.4 2.0 3.4 100 0.0 CALM 0 0 0 0 1027.2 - 0.0
06/03:10am 3.8 2.4 3.8 100 0.0 CALM 0 0 0 0 1027.2 - 0.0
06/03:00am 3.9 2.6 3.9 100 0.0 CALM 0 0 0 0 1027.3 - 0.0
06/02:50am 4.0 2.7 4.0 100 0.0 CALM 0 0 0 0 1027.2 - 0.0
06/02:40am 3.7 2.3 3.7 100 0.0 CALM 0 0 0 0 1027.2 - 0.0
06/02:30am 3.6 2.2 3.6 100 0.0 CALM 0 0 0 0 1027.2 - 0.0
06/02:20am 3.5 2.1 3.5 100 0.0 CALM 0 0 0 0 1027.2 - 0.0
06/02:10am 3.4 2.0 3.4 100 0.0 CALM 0 0 0 0 1027.1 - 0.0
06/02:00am 3.5 2.1 3.5 100 0.0 CALM 0 0 0 0 1027.1 - 0.0
06/01:50am 3.4 2.0 3.4 100 0.0 CALM 0 0 0 0 1027.2 - 0.0
06/01:40am 3.3 1.9 3.3 100 0.0 CALM 0 0 0 0 1027.2 - 0.0
06/01:30am 3.7 2.3 3.7 100 0.0 CALM 0 0 0 0 1027.2 - 0.0
06/01:20am 3.5 2.1 3.5 100 0.0 CALM 0 0 0 0 1027.2 - 0.0
06/01:10am 3.4 2.0 3.4 100 0.0 CALM 0 0 0 0 1027.1 - 0.0
06/01:00am 3.2 1.7 3.2 100 0.0 CALM 0 0 0 0 1027.1 - 0.0
06/12:50am 3.3 1.8 3.2 99 0.0 CALM 0 0 0 0 1027.1 - 0.0
06/12:40am 3.8 2.4 3.5 98 0.1 CALM 0 0 0 0 1027.2 - 0.0
06/12:30am 4.5 3.2 4.1 97 0.2 CALM 0 0 0 0 1027.2 - 0.0
06/12:20am 5.3 4.1 4.5 95 0.4 CALM 0 0 0 0 1027.2 - 0.0
06/12:10am 5.6 4.4 4.5 93 0.5 CALM 0 0 0 0 1027.2 - 0.0
06/12:00am 5.7 4.5 4.5 92 0.5 CALM 0 0 0 0 1027.2 - 0.0
 
Date/Time
EST
Temp
°C
App
Temp
°C
Dew
Point
°C
Rel
Hum
%
Delta-T
°C
Wind Press
QNH
hPa
Press
MSL
hPa
Rain since
9am
mm
Dir  Spd
km/h
Gust
km/h
Spd
kts
Gust
kts
05/11:50pm 5.6 4.4 4.5 93 0.5 CALM 0 0 0 0 1027.2 - 0.0
05/11:40pm 5.5 4.3 4.6 94 0.4 CALM 0 0 0 0 1027.2 - 0.0
05/11:30pm 5.5 4.3 4.4 93 0.5 CALM 0 0 0 0 1027.3 - 0.0
05/11:20pm 5.3 4.1 4.5 95 0.4 CALM 0 0 0 0 1027.2 - 0.0
05/11:10pm 5.3 4.0 4.3 93 0.4 CALM 0 0 0 0 1027.2 - 0.0
05/11:00pm 5.4 4.2 4.4 93 0.4 CALM 0 0 0 0 1027.1 - 0.0
05/10:50pm 5.6 4.4 4.5 93 0.5 CALM 0 0 0 0 1027.1 - 0.0
05/10:40pm 5.3 4.1 4.8 97 0.2 CALM 0 0 0 0 1027.0 - 0.0
05/10:30pm 5.2 4.0 4.8 97 0.2 CALM 0 0 0 0 1026.9 - 0.0
05/10:20pm 5.4 4.2 4.5 94 0.4 CALM 0 0 0 0 1026.9 - 0.0
05/10:10pm 5.7 4.5 4.4 91 0.6 CALM 0 0 0 0 1026.7 - 0.0
05/10:00pm 5.6 4.3 4.3 91 0.6 CALM 0 0 0 0 1026.6 - 0.0
05/09:50pm 5.9 4.7 4.4 90 0.7 CALM 0 0 0 0 1026.5 - 0.0
05/09:40pm 6.6 5.4 4.5 86 1.0 CALM 0 0 0 0 1026.3 - 0.0
05/09:30pm 6.6 5.4 4.4 86 1.0 CALM 0 0 0 0 1026.2 - 0.0
05/09:20pm 6.5 5.3 4.4 86 0.9 CALM 0 0 0 0 1026.1 - 0.0
05/09:10pm 6.4 5.2 4.7 89 0.8 CALM 0 0 0 0 1026.1 - 0.0
05/09:00pm 6.5 5.3 4.7 88 0.8 CALM 0 0 0 0 1026.0 - 0.0
05/08:50pm 6.5 5.3 4.8 89 0.8 CALM 0 0 0 0 1025.9 - 0.0
05/08:40pm 6.5 5.3 4.8 89 0.8 CALM 0 0 0 0 1025.7 - 0.0
05/08:30pm 6.7 5.5 4.6 86 1.0 CALM 0 0 0 0 1025.8 - 0.0
05/08:20pm 6.7 5.5 4.6 86 1.0 CALM 0 0 0 0 1025.6 - 0.0
05/08:10pm 6.7 5.5 4.7 87 0.9 CALM 0 0 0 0 1025.5 - 0.0
05/08:00pm 6.7 5.6 4.9 88 0.8 CALM 0 0 0 0 1025.4 - 0.0
05/07:50pm 7.8 6.6 4.5 79 1.5 CALM 0 0 0 0 1025.3 - 0.0
05/07:40pm 7.3 6.1 4.5 82 1.3 CALM 0 0 0 0 1025.2 - 0.0
05/07:30pm 7.2 6.0 4.8 85 1.1 CALM 0 0 0 0 1024.9 - 0.0
05/07:20pm 7.2 6.0 4.8 85 1.1 CALM 0 0 0 0 1025.0 - 0.0
05/07:10pm 7.2 6.1 4.9 85 1.1 CALM 0 0 0 0 1024.7 - 0.0
05/07:00pm 7.0 5.8 4.8 86 1.0 CALM 0 0 0 0 1024.6 - 0.0
05/06:50pm 7.0 5.9 4.9 86 1.0 CALM 0 0 0 0 1024.6 - 0.0
05/06:40pm 6.9 5.8 4.9 87 0.9 CALM 0 0 0 0 1024.6 - 0.0
05/06:30pm 6.8 5.7 5.1 89 0.8 CALM 0 0 0 0 1024.4 - 0.0
05/06:20pm 7.0 5.9 5.1 88 0.9 CALM 0 0 0 0 1024.3 - 0.0
05/06:10pm 7.2 6.1 5.2 87 0.9 CALM 0 0 0 0 1024.2 - 0.0
05/06:00pm 7.3 6.2 5.2 86 1.0 CALM 0 0 0 0 1024.1 - 0.0
05/05:50pm 7.5 6.4 5.2 85 1.1 CALM 0 0 0 0 1024.0 - 0.0
05/05:40pm 7.7 6.6 5.1 83 1.2 CALM 0 0 0 0 1023.8 - 0.0
05/05:30pm 7.7 6.6 5.2 84 1.2 CALM 0 0 0 0 1023.5 - 0.0
05/05:20pm 7.9 6.8 5.2 83 1.3 CALM 0 0 0 0 1023.4 - 0.0
05/05:10pm 8.0 6.9 5.1 82 1.3 CALM 0 0 0 0 1023.4 - 0.0
05/05:00pm 8.1 7.0 5.3 82 1.3 CALM 0 0 0 0 1023.4 - 0.0
05/04:50pm 8.5 7.4 5.3 80 1.5 CALM 0 0 0 0 1023.4 - 0.0
05/04:40pm 8.8 7.8 5.4 79 1.6 CALM 0 0 0 0 1023.2 - 0.0
05/04:30pm 8.9 7.9 5.4 79 1.7 CALM 0 0 0 0 1023.4 - 0.0
05/04:20pm 9.0 7.9 5.3 77 1.7 CALM 0 0 0 0 1023.1 - 0.0
05/04:10pm 9.1 8.1 5.4 77 1.7 CALM 0 0 0 0 1023.2 - 0.0
05/04:00pm 9.2 8.1 5.3 76 1.8 CALM 0 0 0 0 1023.2 - 0.0
05/03:50pm 9.1 8.0 5.2 76 1.8 CALM 0 0 0 0 1023.2 - 0.0
05/03:40pm 9.2 8.1 5.2 76 1.9 CALM 0 0 0 0 1023.3 - 0.0
05/03:30pm 9.3 8.2 5.2 75 1.9 CALM 0 0 0 0 1023.3 - 0.0
05/03:20pm 9.4 8.3 5.0 74 2.1 CALM 0 0 0 0 1023.2 - 0.0
05/03:10pm 9.5 8.4 4.9 73 2.2 CALM 0 0 0 0 1023.0 - 0.0
05/03:00pm 9.7 8.5 4.8 71 2.3 CALM 0 0 0 0 1023.0 - 0.0
05/02:50pm 9.5 8.3 4.7 72 2.2 CALM 0 0 0 0 1023.1 - 0.0
05/02:40pm 9.6 8.5 4.9 72 2.2 CALM 0 0 0 0 1022.9 - 0.0
05/02:30pm 9.8 8.7 4.9 71 2.3 CALM 0 0 0 0 1022.9 - 0.0
05/02:20pm 9.5 8.4 4.9 73 2.2 CALM 0 0 0 0 1022.8 - 0.0
05/02:10pm 9.5 8.3 4.8 72 2.2 CALM 0 0 0 0 1022.6 - 0.0
05/02:00pm 9.5 8.3 4.7 72 2.2 CALM 0 0 0 0 1022.6 - 0.0
05/01:50pm 9.5 8.3 4.8 72 2.2 CALM 0 0 0 0 1022.6 - 0.0
05/01:40pm 9.6 8.4 4.7 71 2.3 CALM 0 0 0 0 1022.9 - 0.0
05/01:30pm 9.2 8.0 4.5 72 2.2 CALM 0 0 0 0 1022.8 - 0.0
05/01:20pm 9.5 8.4 4.9 73 2.2 CALM 0 0 0 0 1023.0 - 0.0
05/01:10pm 9.7 8.6 4.9 72 2.3 CALM 0 0 0 0 1023.1 - 0.0
05/01:00pm 9.3 8.2 5.2 75 1.9 CALM 0 0 0 0 1023.2 - 0.0
05/12:50pm 9.2 8.0 4.6 73 2.1 CALM 0 0 0 0 1023.2 - 0.0
05/12:40pm 8.9 7.6 4.1 72 2.2 CALM 0 0 0 0 1023.1 - 0.0
05/12:30pm 8.7 7.5 4.4 74 2.0 CALM 0 0 0 0 1023.0 - 0.0
05/12:20pm 8.7 7.4 4.3 74 2.0 CALM 0 0 0 0 1023.4 - 0.0
05/12:10pm 8.7 7.4 4.2 73 2.1 CALM 0 0 0 0 1023.5 - 0.0
05/12:00pm 8.6 7.3 4.3 74 2.0 CALM 0 0 0 0 1023.7 - 0.0
05/11:50am 8.5 7.3 4.4 75 1.9 CALM 0 0 0 0 1023.8 - 0.0
05/11:40am 8.4 7.2 4.5 76 1.8 CALM 0 0 0 0 1023.8 - 0.0
05/11:30am 8.3 7.1 4.4 76 1.8 CALM 0 0 0 0 1024.1 - 0.0
05/11:20am 8.3 7.0 4.0 74 2.0 CALM 0 0 0 0 1024.1 - 0.0
05/11:10am 8.2 6.9 4.0 75 1.9 CALM 0 0 0 0 1024.1 - 0.0
05/11:00am 8.0 6.6 3.8 75 1.9 CALM 0 0 0 0 1024.2 - 0.0
05/10:50am 8.1 6.8 4.1 76 1.8 CALM 0 0 0 0 1024.2 - 0.0
05/10:40am 8.0 6.7 4.0 76 1.8 CALM 0 0 0 0 1024.3 - 0.0
05/10:30am 7.8 6.4 3.7 75 1.8 CALM 0 0 0 0 1024.1 - 0.0
05/10:20am 7.7 6.3 3.7 76 1.8 CALM 0 0 0 0 1024.3 - 0.0
05/10:10am 7.7 6.3 3.5 75 1.9 CALM 0 0 0 0 1024.3 - 0.0
05/10:00am 7.6 6.2 3.3 74 1.9 CALM 0 0 0 0 1024.4 - 0.0
05/09:50am 7.4 6.0 3.3 75 1.8 CALM 0 0 0 0 1024.4 - 0.0
05/09:40am 7.2 5.8 3.4 77 1.7 CALM 0 0 0 0 1024.3 - 0.0
05/09:30am 7.2 5.8 3.3 76 1.7 CALM 0 0 0 0 1024.2 - 0.0
05/09:20am 7.1 5.6 3.1 76 1.8 CALM 0 0 0 0 1023.8 - 0.0
05/09:10am 7.0 5.6 3.5 78 1.6 CALM 0 0 0 0 1024.1 - 0.0
05/09:00am 6.9 5.4 3.1 77 1.7 CALM 0 0 0 0 1023.9 - 0.2
05/08:50am 6.7 5.2 2.9 77 1.7 CALM 0 0 0 0 1023.6 - 0.2
05/08:40am 6.5 5.0 3.1 79 1.5 CALM 0 0 0 0 1023.6 - 0.2
05/08:30am 6.5 5.0 3.0 78 1.5 CALM 0 0 0 0 1023.5 - 0.2
05/08:20am 6.4 4.9 3.0 79 1.5 CALM 0 0 0 0 1023.4 - 0.2
05/08:10am 6.2 4.7 3.1 80 1.4 CALM 0 0 0 0 1023.4 - 0.2
05/08:00am 6.3 4.8 3.2 80 1.4 CALM 0 0 0 0 1023.2 - 0.2
05/07:50am 5.8 4.4 3.4 84 1.1 CALM 0 0 0 0 1023.0 - 0.2
05/07:40am 5.9 4.5 3.7 86 1.0 CALM 0 0 0 0 1022.8 - 0.2
05/07:30am 6.0 4.5 3.2 82 1.2 CALM 0 0 0 0 1022.8 - 0.2
05/07:20am 5.9 4.5 3.3 83 1.1 CALM 0 0 0 0 1022.7 - 0.2
05/07:10am 6.0 4.6 3.6 84 1.1 CALM 0 0 0 0 1022.7 - 0.2
05/07:00am 6.2 4.8 3.5 83 1.2 CALM 0 0 0 0 1022.6 - 0.2
05/06:50am 6.1 4.7 3.5 83 1.1 CALM 0 0 0 0 1022.5 - 0.2
05/06:40am 6.1 4.7 3.3 82 1.2 CALM 0 0 0 0 1022.4 - 0.2
05/06:30am 6.0 4.6 3.7 85 1.0 CALM 0 0 0 0 1022.3 - 0.2
05/06:20am 6.0 4.6 3.7 85 1.0 CALM 0 0 0 0 1022.4 - 0.2
05/06:10am 6.0 4.6 3.8 86 1.0 CALM 0 0 0 0 1022.3 - 0.2
05/06:00am 6.0 4.7 4.2 88 0.8 CALM 0 0 0 0 1022.1 - 0.2
05/05:50am 5.9 4.7 4.4 90 0.7 CALM 0 0 0 0 1021.9 - 0.2
05/05:40am 6.0 4.7 4.0 87 0.9 CALM 0 0 0 0 1021.9 - 0.2
05/05:30am 6.0 4.7 4.1 88 0.8 CALM 0 0 0 0 1021.8 - 0.2
05/05:20am 6.0 4.7 4.1 88 0.8 CALM 0 0 0 0 1021.8 - 0.2
05/05:10am 6.1 4.8 4.1 87 0.9 CALM 0 0 0 0 1021.9 - 0.2
05/05:00am 6.0 4.7 4.2 88 0.8 CALM 0 0 0 0 1021.9 - 0.2
05/04:50am 5.8 4.6 4.5 91 0.6 CALM 0 0 0 0 1022.0 - 0.2
05/04:40am 5.8 4.6 4.6 92 0.5 CALM 0 0 0 0 1022.0 - 0.2
05/04:30am 6.0 4.8 4.7 91 0.6 CALM 0 0 0 0 1021.9 - 0.2
05/04:20am 6.0 4.8 4.5 90 0.7 CALM 0 0 0 0 1021.9 - 0.2
05/04:10am 5.9 4.8 4.9 93 0.5 CALM 0 0 0 0 1021.9 - 0.2
05/04:00am 5.9 4.8 4.9 93 0.5 CALM 0 0 0 0 1022.1 - 0.2
05/03:50am 5.9 4.8 4.9 93 0.5 CALM 0 0 0 0 1022.2 - 0.2
05/03:40am 6.0 4.9 4.9 93 0.5 CALM 0 0 0 0 1022.2 - 0.2
05/03:30am 6.0 4.8 4.8 92 0.5 CALM 0 0 0 0 1022.2 - 0.2
05/03:20am 5.9 4.7 4.7 92 0.5 CALM 0 0 0 0 1022.3 - 0.2
05/03:10am 5.6 4.5 5.2 97 0.2 CALM 0 0 0 0 1022.3 - 0.2
05/03:00am 5.5 4.4 5.3 99 0.1 CALM 0 0 0 0 1022.3 - 0.2
05/02:50am 5.4 4.4 5.4 100 0.0 CALM 0 0 0 0 1022.3 - 0.2
05/02:40am 5.3 4.2 5.3 100 0.0 CALM 0 0 0 0 1022.3 - 0.2
05/02:30am 5.2 4.1 5.2 100 0.0 CALM 0 0 0 0 1022.5 - 0.2
05/02:20am 5.2 4.1 5.2 100 0.0 CALM 0 0 0 0 1022.5 - 0.2
05/02:10am 5.2 4.1 5.2 100 0.0 CALM 0 0 0 0 1022.8 - 0.2
05/02:00am 5.1 4.0 5.1 100 0.0 CALM 0 0 0 0 1022.6 - 0.2
05/01:50am 5.1 4.0 5.1 100 0.0 CALM 0 0 0 0 1022.9 - 0.2
05/01:40am 5.0 3.9 5.0 100 0.0 CALM 0 0 0 0 1023.1 - 0.2
05/01:30am 5.0 3.9 5.0 100 0.0 CALM 0 0 0 0 1023.1 - 0.2
05/01:20am 5.0 3.9 5.0 100 0.0 CALM 0 0 0 0 1022.9 - 0.2
05/01:10am 4.9 3.8 4.9 100 0.0 CALM 0 0 0 0 1022.9 - 0.2
05/01:00am 4.9 3.8 4.9 100 0.0 CALM 0 0 0 0 1022.9 - 0.2
05/12:50am 4.8 3.6 4.8 100 0.0 CALM 0 0 0 0 1023.0 - 0.2
05/12:40am 4.8 3.6 4.8 100 0.0 CALM 0 0 0 0 1022.9 - 0.2
05/12:30am 4.8 3.6 4.7 99 0.0 CALM 0 0 0 0 1022.9 - 0.2
05/12:20am 4.8 3.6 4.7 99 0.0 CALM 0 0 0 0 1023.1 - 0.2
05/12:10am 4.8 3.6 4.7 99 0.0 CALM 0 0 0 0 1023.0 - 0.2
05/12:00am 4.7 3.5 4.7 100 0.0 CALM 0 0 0 0 1022.9 - 0.2
 
Date/Time
EST
Temp
°C
App
Temp
°C
Dew
Point
°C
Rel
Hum
%
Delta-T
°C
Wind Press
QNH
hPa
Press
MSL
hPa
Rain since
9am
mm
Dir  Spd
km/h
Gust
km/h
Spd
kts
Gust
kts
04/11:50pm 4.6 3.4 4.6 100 0.0 CALM 0 0 0 0 1023.0 - 0.2
04/11:40pm 4.6 3.4 4.6 100 0.0 CALM 0 0 0 0 1023.3 - 0.2
04/11:30pm 4.6 3.4 4.6 100 0.0 CALM 0 0 0 0 1023.2 - 0.2
04/11:20pm 4.5 3.3 4.5 100 0.0 CALM 0 0 0 0 1023.3 - 0.2
04/11:10pm 4.5 3.3 4.4 99 0.0 CALM 0 0 0 0 1023.3 - 0.2
04/11:00pm 4.5 3.3 4.4 99 0.0 CALM 0 0 0 0 1023.2 - 0.2
04/10:50pm 4.6 3.3 4.3 98 0.1 CALM 0 0 0 0 1023.3 - 0.2
04/10:40pm 4.8 3.5 4.1 95 0.3 CALM 0 0 0 0 1023.3 - 0.2
04/10:30pm 4.8 3.5 3.9 94 0.4 CALM 0 0 0 0 1023.3 - 0.2
04/10:20pm 4.8 3.4 3.8 93 0.4 CALM 0 0 0 0 1023.0 - 0.2
04/10:10pm 4.8 3.4 3.8 93 0.4 CALM 0 0 0 0 1023.0 - 0.2
04/10:00pm 4.8 3.4 3.7 93 0.5 CALM 0 2 0 1 1022.7 - 0.2
04/09:50pm 4.9 3.1 3.5 91 0.6 W 2 6 1 3 1022.4 - 0.2
04/09:40pm 4.9 3.1 3.3 89 0.7 W 2 4 1 2 1022.3 - 0.2
04/09:30pm 5.0 3.1 3.1 87 0.8 W 2 6 1 3 1022.5 - 0.2
04/09:20pm 4.9 3.1 3.2 89 0.7 W 2 6 1 3 1022.2 - 0.2
04/09:10pm 4.9 2.6 3.0 87 0.8 W 4 6 2 3 1021.5 - 0.2
04/09:00pm 4.9 3.0 3.1 88 0.8 W 2 2 1 1 1022.1 - 0.2
04/08:50pm 5.0 2.7 2.9 86 0.9 W 4 6 2 3 1022.2 - 0.2
04/08:40pm 5.2 2.9 2.8 84 1.0 W 4 6 2 3 1021.8 - 0.2
04/08:30pm 5.2 2.9 2.5 83 1.2 W 4 7 2 4 1022.1 - 0.2
04/08:20pm 5.5 2.7 2.3 80 1.4 W 6 7 3 4 1021.4 - 0.2
04/08:10pm 5.3 3.0 2.5 82 1.2 W 4 6 2 3 1021.7 - 0.2
04/08:00pm 5.5 3.5 2.4 80 1.3 W 2 6 1 3 1022.3 - 0.2
04/07:50pm 5.2 3.6 2.4 82 1.2 CALM 0 2 0 1 1022.6 - 0.2
04/07:40pm 5.4 3.8 2.3 80 1.3 CALM 0 4 0 2 1022.4 - 0.2
04/07:30pm 5.4 3.4 2.3 80 1.3 W 2 6 1 3 1022.0 - 0.2
04/07:20pm 5.3 3.7 2.4 81 1.2 CALM 0 2 0 1 1022.0 - 0.2
04/07:10pm 5.3 3.6 2.0 79 1.4 CALM 0 0 0 0 1022.7 - 0.2
04/07:00pm 5.3 3.3 2.4 81 1.2 W 2 2 1 1 1022.1 - 0.2
04/06:50pm 5.4 3.3 2.0 79 1.4 W 2 6 1 3 1021.5 - 0.2
04/06:40pm 5.2 3.6 2.2 81 1.3 CALM 0 2 0 1 1022.1 - 0.0
04/06:30pm 5.1 3.5 2.3 82 1.2 CALM 0 4 0 2 1021.8 - 0.0
04/06:20pm 4.9 3.3 2.5 84 1.0 CALM 0 0 0 0 1021.6 - 0.0
04/06:10pm 4.8 3.2 2.7 86 0.9 CALM 0 0 0 0 1021.8 - 0.0
04/06:00pm 4.8 3.2 2.6 86 0.9 CALM 0 0 0 0 1021.7 - 0.0
04/05:50pm 4.8 3.3 2.8 87 0.9 CALM 0 0 0 0 1021.9 - 0.0
04/05:40pm 4.7 3.2 2.9 88 0.8 CALM 0 0 0 0 1021.7 - 0.0
04/05:30pm 4.8 3.3 3.1 89 0.7 CALM 0 0 0 0 1022.0 - 0.0
04/05:20pm 4.9 3.4 3.1 88 0.8 CALM 0 0 0 0 1021.8 - 0.0
04/05:10pm 4.9 3.4 3.2 89 0.7 CALM 0 0 0 0 1021.7 - 0.0
04/05:00pm 5.0 3.5 3.2 88 0.8 CALM 0 0 0 0 1021.3 - 0.0
04/04:50pm 5.1 3.6 3.2 87 0.8 CALM 0 0 0 0 1021.5 - 0.0
04/04:40pm 5.3 3.8 3.2 86 0.9 CALM 0 0 0 0 1021.3 - 0.0
04/04:30pm 5.4 3.9 3.0 84 1.0 CALM 0 0 0 0 1021.4 - 0.0
04/04:20pm 5.5 4.0 3.0 84 1.1 CALM 0 0 0 0 1021.3 - 0.0
04/04:10pm 5.7 4.2 2.9 82 1.2 CALM 0 0 0 0 1021.4 - 0.0
04/04:00pm 6.2 4.6 2.7 78 1.5 CALM 0 0 0 0 1021.3 - 0.0
04/03:50pm 6.3 4.7 2.6 77 1.6 CALM 0 0 0 0 1021.2 - 0.0
04/03:40pm 6.0 4.4 2.7 79 1.4 CALM 0 0 0 0 1021.1 - 0.0
04/03:30pm 6.0 4.5 2.8 80 1.4 CALM 0 0 0 0 1021.3 - 0.0
04/03:20pm 6.4 4.9 3.1 79 1.4 CALM 0 0 0 0 1021.4 - 0.0
04/03:10pm 6.9 5.4 3.0 76 1.7 CALM 0 0 0 0 1021.3 - 0.0
04/03:00pm 7.3 5.8 3.2 75 1.8 CALM 0 0 0 0 1021.0 - 0.0
04/02:50pm 7.3 5.6 2.0 69 2.3 CALM 0 0 0 0 1021.0 - 0.0
04/02:40pm 7.5 5.9 2.4 70 2.2 CALM 0 0 0 0 1021.1 - 0.0
04/02:30pm 7.4 5.7 2.1 69 2.3 CALM 0 0 0 0 1021.0 - 0.0
04/02:20pm 7.3 5.6 2.1 69 2.2 CALM 0 0 0 0 1020.9 - 0.0
04/02:10pm 7.3 5.7 2.3 70 2.2 CALM 0 0 0 0 1021.0 - 0.0
04/02:00pm 7.5 5.8 1.9 67 2.4 CALM 0 0 0 0 1021.2 - 0.0
04/01:50pm 7.4 5.7 1.8 67 2.4 CALM 0 0 0 0 1021.1 - 0.0
04/01:40pm 7.3 5.5 1.1 65 2.6 CALM 0 0 0 0 1020.8 - 0.0
04/01:30pm 7.2 5.4 1.0 65 2.6 CALM 0 0 0 0 1020.7 - 0.0
04/01:20pm 7.3 5.4 0.7 63 2.8 CALM 0 0 0 0 1020.8 - 0.0
04/01:10pm 7.2 5.4 1.3 66 2.5 CALM 0 0 0 0 1021.2 - 0.0
04/01:00pm 7.4 5.6 1.4 66 2.5 CALM 0 0 0 0 1021.3 - 0.0
04/12:50pm 7.7 5.9 1.5 65 2.6 CALM 0 0 0 0 1021.2 - 0.0
04/12:40pm 7.5 5.8 2.1 68 2.3 CALM 0 0 0 0 1021.6 - 0.0

Latest Capital City Observations: Canberra | Sydney | Melbourne | Brisbane | Adelaide | Perth | Hobart | Darwin

Other formats

Comma delimited format used in spreadsheet applications
http://www.bom.gov.au/fwo/IDN60903/IDN60903.99763.axf

JavaScript Object Notation format (JSON) in row-major order
http://www.bom.gov.au/fwo/IDN60903/IDN60903.99763.json

Data quality

Most of these data are generated automatically and are frequently updated. Quality checks on data are not normally performed. It is possible for incorrect values to appear. Refer to information at About Latest Weather Observations and please check the disclaimer before using these data.